sensor_id;sensor_type;location;lat;lon;timestamp;temperature;humidity
62998;DHT22;55949;52.590;7.330;2023-06-10T00:00:24;19.90;96.20
62998;DHT22;55949;52.590;7.330;2023-06-10T00:01:25;19.90;96.40
62998;DHT22;55949;52.590;7.330;2023-06-10T00:02:26;19.80;96.50
62998;DHT22;55949;52.590;7.330;2023-06-10T00:03:26;19.70;96.60
62998;DHT22;55949;52.590;7.330;2023-06-10T00:04:27;19.70;96.80
62998;DHT22;55949;52.590;7.330;2023-06-10T00:05:27;19.60;96.90
62998;DHT22;55949;52.590;7.330;2023-06-10T00:06:30;19.70;97.10
62998;DHT22;55949;52.590;7.330;2023-06-10T00:07:35;19.60;97.20
62998;DHT22;55949;52.590;7.330;2023-06-10T00:08:56;19.50;97.20
62998;DHT22;55949;52.590;7.330;2023-06-10T00:09:56;19.60;97.40
62998;DHT22;55949;52.590;7.330;2023-06-10T00:10:57;19.50;97.50
62998;DHT22;55949;52.590;7.330;2023-06-10T00:11:58;19.50;97.60
62998;DHT22;55949;52.590;7.330;2023-06-10T00:13:01;19.50;97.70
62998;DHT22;55949;52.590;7.330;2023-06-10T00:14:02;19.50;97.80
62998;DHT22;55949;52.590;7.330;2023-06-10T00:15:06;19.50;98.20
62998;DHT22;55949;52.590;7.330;2023-06-10T00:16:07;19.50;98.00
62998;DHT22;55949;52.590;7.330;2023-06-10T00:17:07;19.50;98.10
62998;DHT22;55949;52.590;7.330;2023-06-10T00:18:09;19.50;98.20
62998;DHT22;55949;52.590;7.330;2023-06-10T00:19:10;19.50;98.30
62998;DHT22;55949;52.590;7.330;2023-06-10T00:20:13;19.50;98.40
62998;DHT22;55949;52.590;7.330;2023-06-10T00:21:14;19.50;98.50
62998;DHT22;55949;52.590;7.330;2023-06-10T00:22:14;19.50;98.60
62998;DHT22;55949;52.590;7.330;2023-06-10T00:23:15;19.50;98.70
62998;DHT22;55949;52.590;7.330;2023-06-10T00:24:16;19.40;98.90
62998;DHT22;55949;52.590;7.330;2023-06-10T00:25:17;19.40;99.00
62998;DHT22;55949;52.590;7.330;2023-06-10T00:26:18;19.40;99.20
62998;DHT22;55949;52.590;7.330;2023-06-10T00:27:19;19.30;99.30
62998;DHT22;55949;52.590;7.330;2023-06-10T00:28:19;19.30;99.40
62998;DHT22;55949;52.590;7.330;2023-06-10T00:29:20;19.20;99.40
62998;DHT22;55949;52.590;7.330;2023-06-10T00:30:20;19.20;99.50
62998;DHT22;55949;52.590;7.330;2023-06-10T00:31:21;19.20;99.70
62998;DHT22;55949;52.590;7.330;2023-06-10T00:32:22;19.20;99.80
62998;DHT22;55949;52.590;7.330;2023-06-10T00:33:22;19.20;99.90
62998;DHT22;55949;52.590;7.330;2023-06-10T00:34:23;19.20;99.90
62998;DHT22;55949;52.590;7.330;2023-06-10T00:35:24;19.20;99.90
62998;DHT22;55949;52.590;7.330;2023-06-10T00:36:25;19.20;99.90
62998;DHT22;55949;52.590;7.330;2023-06-10T00:37:25;19.10;99.90
62998;DHT22;55949;52.590;7.330;2023-06-10T00:38:26;19.10;99.90
62998;DHT22;55949;52.590;7.330;2023-06-10T00:39:26;19.20;99.90
62998;DHT22;55949;52.590;7.330;2023-06-10T00:40:27;19.10;99.90
62998;DHT22;55949;52.590;7.330;2023-06-10T00:41:27;19.10;99.90
62998;DHT22;55949;52.590;7.330;2023-06-10T00:42:28;19.10;99.90
62998;DHT22;55949;52.590;7.330;2023-06-10T00:43:28;19.10;99.90
62998;DHT22;55949;52.590;7.330;2023-06-10T00:44:29;19.10;99.90
62998;DHT22;55949;52.590;7.330;2023-06-10T00:45:30;19.10;99.90
62998;DHT22;55949;52.590;7.330;2023-06-10T00:46:30;19.00;99.90
62998;DHT22;55949;52.590;7.330;2023-06-10T00:47:32;18.90;99.90
62998;DHT22;55949;52.590;7.330;2023-06-10T00:48:35;18.90;99.90
62998;DHT22;55949;52.590;7.330;2023-06-10T00:49:36;18.90;99.90
62998;DHT22;55949;52.590;7.330;2023-06-10T00:50:36;18.80;99.90
62998;DHT22;55949;52.590;7.330;2023-06-10T00:51:39;18.80;99.90
62998;DHT22;55949;52.590;7.330;2023-06-10T00:52:40;18.80;99.90
62998;DHT22;55949;52.590;7.330;2023-06-10T00:53:40;18.80;99.90
62998;DHT22;55949;52.590;7.330;2023-06-10T00:54:41;18.70;99.90
62998;DHT22;55949;52.590;7.330;2023-06-10T00:55:42;18.70;99.90
62998;DHT22;55949;52.590;7.330;2023-06-10T00:56:42;18.70;99.90
62998;DHT22;55949;52.590;7.330;2023-06-10T00:57:44;18.70;99.90
62998;DHT22;55949;52.590;7.330;2023-06-10T00:58:45;18.70;99.90
62998;DHT22;55949;52.590;7.330;2023-06-10T00:59:47;18.70;99.90
62998;DHT22;55949;52.590;7.330;2023-06-10T01:00:48;18.70;99.90
62998;DHT22;55949;52.590;7.330;2023-06-10T01:01:50;18.70;99.90
62998;DHT22;55949;52.590;7.330;2023-06-10T01:02:52;18.70;99.90
62998;DHT22;55949;52.590;7.330;2023-06-10T01:03:53;18.70;99.90
62998;DHT22;55949;52.590;7.330;2023-06-10T01:04:54;18.60;99.90
62998;DHT22;55949;52.590;7.330;2023-06-10T01:06:04;18.60;99.90
62998;DHT22;55949;52.590;7.330;2023-06-10T01:08:28;18.60;99.90
62998;DHT22;55949;52.590;7.330;2023-06-10T01:09:54;18.50;99.90
62998;DHT22;55949;52.590;7.330;2023-06-10T01:10:54;18.50;99.90
62998;DHT22;55949;52.590;7.330;2023-06-10T01:12:05;18.40;99.90
62998;DHT22;55949;52.590;7.330;2023-06-10T01:13:10;18.40;99.90
62998;DHT22;55949;52.590;7.330;2023-06-10T01:14:12;18.40;99.90
62998;DHT22;55949;52.590;7.330;2023-06-10T01:15:15;18.30;99.90
62998;DHT22;55949;52.590;7.330;2023-06-10T01:16:17;18.30;99.90
62998;DHT22;55949;52.590;7.330;2023-06-10T01:17:18;18.30;99.90
62998;DHT22;55949;52.590;7.330;2023-06-10T01:18:19;18.30;99.90
62998;DHT22;55949;52.590;7.330;2023-06-10T01:19:19;18.30;99.90
62998;DHT22;55949;52.590;7.330;2023-06-10T01:20:20;18.30;99.90
62998;DHT22;55949;52.590;7.330;2023-06-10T01:21:21;18.30;99.90
62998;DHT22;55949;52.590;7.330;2023-06-10T01:22:25;18.30;99.90
62998;DHT22;55949;52.590;7.330;2023-06-10T01:23:28;18.20;99.90
62998;DHT22;55949;52.590;7.330;2023-06-10T01:24:29;18.20;99.90
62998;DHT22;55949;52.590;7.330;2023-06-10T01:25:33;18.10;99.90
62998;DHT22;55949;52.590;7.330;2023-06-10T01:26:36;18.10;99.90
62998;DHT22;55949;52.590;7.330;2023-06-10T01:27:37;18.10;99.90
62998;DHT22;55949;52.590;7.330;2023-06-10T01:28:48;18.10;99.90
62998;DHT22;55949;52.590;7.330;2023-06-10T01:29:50;18.00;99.90
62998;DHT22;55949;52.590;7.330;2023-06-10T01:31:03;18.00;99.90
62998;DHT22;55949;52.590;7.330;2023-06-10T01:32:12;18.00;99.90
62998;DHT22;55949;52.590;7.330;2023-06-10T01:33:17;17.90;99.90
62998;DHT22;55949;52.590;7.330;2023-06-10T01:34:18;17.90;99.90
62998;DHT22;55949;52.590;7.330;2023-06-10T01:35:21;17.90;99.90
62998;DHT22;55949;52.590;7.330;2023-06-10T01:36:24;18.00;99.90
62998;DHT22;55949;52.590;7.330;2023-06-10T01:37:25;18.00;99.90
62998;DHT22;55949;52.590;7.330;2023-06-10T01:38:26;18.00;99.90
62998;DHT22;55949;52.590;7.330;2023-06-10T01:39:27;18.00;99.90
62998;DHT22;55949;52.590;7.330;2023-06-10T01:40:28;18.00;99.90
62998;DHT22;55949;52.590;7.330;2023-06-10T01:41:29;18.00;99.90
62998;DHT22;55949;52.590;7.330;2023-06-10T01:42:30;18.10;99.90
62998;DHT22;55949;52.590;7.330;2023-06-10T01:43:33;18.10;99.90
62998;DHT22;55949;52.590;7.330;2023-06-10T01:44:34;18.10;99.90
62998;DHT22;55949;52.590;7.330;2023-06-10T01:45:35;18.10;99.90
62998;DHT22;55949;52.590;7.330;2023-06-10T01:46:35;18.10;99.90
62998;DHT22;55949;52.590;7.330;2023-06-10T01:47:36;18.10;99.90
62998;DHT22;55949;52.590;7.330;2023-06-10T01:48:40;18.10;99.90
62998;DHT22;55949;52.590;7.330;2023-06-10T01:49:41;18.10;99.90
62998;DHT22;55949;52.590;7.330;2023-06-10T01:50:41;18.20;99.90
62998;DHT22;55949;52.590;7.330;2023-06-10T01:51:44;18.10;99.90
62998;DHT22;55949;52.590;7.330;2023-06-10T01:52:45;18.10;99.90
62998;DHT22;55949;52.590;7.330;2023-06-10T01:53:45;18.00;99.90
62998;DHT22;55949;52.590;7.330;2023-06-10T01:54:46;18.00;99.90
62998;DHT22;55949;52.590;7.330;2023-06-10T01:55:46;17.90;99.90
62998;DHT22;55949;52.590;7.330;2023-06-10T01:56:47;17.90;99.90
62998;DHT22;55949;52.590;7.330;2023-06-10T01:57:47;17.80;99.90
62998;DHT22;55949;52.590;7.330;2023-06-10T01:58:48;17.80;99.90
62998;DHT22;55949;52.590;7.330;2023-06-10T01:59:48;17.80;99.90
62998;DHT22;55949;52.590;7.330;2023-06-10T02:00:49;17.70;99.90
62998;DHT22;55949;52.590;7.330;2023-06-10T02:01:49;17.60;99.90
62998;DHT22;55949;52.590;7.330;2023-06-10T02:02:50;17.60;99.90
62998;DHT22;55949;52.590;7.330;2023-06-10T02:03:51;17.60;99.90
62998;DHT22;55949;52.590;7.330;2023-06-10T02:04:52;17.50;99.90
62998;DHT22;55949;52.590;7.330;2023-06-10T02:05:52;17.50;99.90
62998;DHT22;55949;52.590;7.330;2023-06-10T02:06:53;17.60;99.90
62998;DHT22;55949;52.590;7.330;2023-06-10T02:07:53;17.60;99.90
62998;DHT22;55949;52.590;7.330;2023-06-10T02:08:54;17.60;99.90
62998;DHT22;55949;52.590;7.330;2023-06-10T02:09:54;17.50;99.90
62998;DHT22;55949;52.590;7.330;2023-06-10T02:10:55;17.60;99.90
62998;DHT22;55949;52.590;7.330;2023-06-10T02:11:56;17.60;99.90
62998;DHT22;55949;52.590;7.330;2023-06-10T02:12:56;17.60;99.90
62998;DHT22;55949;52.590;7.330;2023-06-10T02:13:57;17.60;99.90
62998;DHT22;55949;52.590;7.330;2023-06-10T02:14:57;17.50;99.90
62998;DHT22;55949;52.590;7.330;2023-06-10T02:15:58;17.50;99.90
62998;DHT22;55949;52.590;7.330;2023-06-10T02:17:00;17.50;99.90
62998;DHT22;55949;52.590;7.330;2023-06-10T02:18:00;17.50;99.90
62998;DHT22;55949;52.590;7.330;2023-06-10T02:19:01;17.40;99.90
62998;DHT22;55949;52.590;7.330;2023-06-10T02:20:04;17.30;99.90
62998;DHT22;55949;52.590;7.330;2023-06-10T02:21:07;17.30;99.90
62998;DHT22;55949;52.590;7.330;2023-06-10T02:22:10;17.30;99.90
62998;DHT22;55949;52.590;7.330;2023-06-10T02:23:11;17.20;99.90
62998;DHT22;55949;52.590;7.330;2023-06-10T02:24:11;17.20;99.90
62998;DHT22;55949;52.590;7.330;2023-06-10T02:25:12;17.20;99.90
62998;DHT22;55949;52.590;7.330;2023-06-10T02:26:13;17.20;99.90
62998;DHT22;55949;52.590;7.330;2023-06-10T02:27:14;17.20;99.90
62998;DHT22;55949;52.590;7.330;2023-06-10T02:28:14;17.20;99.90
62998;DHT22;55949;52.590;7.330;2023-06-10T02:29:15;17.20;99.90
62998;DHT22;55949;52.590;7.330;2023-06-10T02:30:15;17.20;99.90
62998;DHT22;55949;52.590;7.330;2023-06-10T02:31:16;17.20;99.90
62998;DHT22;55949;52.590;7.330;2023-06-10T02:32:18;17.20;99.90
62998;DHT22;55949;52.590;7.330;2023-06-10T02:33:18;17.20;99.90
62998;DHT22;55949;52.590;7.330;2023-06-10T02:34:20;17.20;99.90
62998;DHT22;55949;52.590;7.330;2023-06-10T02:35:21;17.20;99.90
62998;DHT22;55949;52.590;7.330;2023-06-10T02:36:24;17.20;99.90
62998;DHT22;55949;52.590;7.330;2023-06-10T02:37:27;17.20;99.90
62998;DHT22;55949;52.590;7.330;2023-06-10T02:38:28;17.20;99.90
62998;DHT22;55949;52.590;7.330;2023-06-10T02:39:31;17.20;99.90
62998;DHT22;55949;52.590;7.330;2023-06-10T02:40:32;17.20;99.90
62998;DHT22;55949;52.590;7.330;2023-06-10T02:41:32;17.10;99.90
62998;DHT22;55949;52.590;7.330;2023-06-10T02:42:33;17.00;99.90
62998;DHT22;55949;52.590;7.330;2023-06-10T02:43:33;16.90;99.90
62998;DHT22;55949;52.590;7.330;2023-06-10T02:44:34;16.90;99.90
62998;DHT22;55949;52.590;7.330;2023-06-10T02:45:35;16.80;99.90
62998;DHT22;55949;52.590;7.330;2023-06-10T02:46:35;16.70;99.90
62998;DHT22;55949;52.590;7.330;2023-06-10T02:47:37;16.70;99.90
62998;DHT22;55949;52.590;7.330;2023-06-10T02:48:40;16.70;99.90
62998;DHT22;55949;52.590;7.330;2023-06-10T02:49:41;16.70;99.90
62998;DHT22;55949;52.590;7.330;2023-06-10T02:50:42;16.70;99.90
62998;DHT22;55949;52.590;7.330;2023-06-10T02:51:43;16.70;99.90
62998;DHT22;55949;52.590;7.330;2023-06-10T02:52:43;16.70;99.90
62998;DHT22;55949;52.590;7.330;2023-06-10T02:53:44;16.70;99.90
62998;DHT22;55949;52.590;7.330;2023-06-10T02:54:44;16.70;99.90
62998;DHT22;55949;52.590;7.330;2023-06-10T02:55:46;16.70;99.90
62998;DHT22;55949;52.590;7.330;2023-06-10T02:56:46;16.70;99.90
62998;DHT22;55949;52.590;7.330;2023-06-10T02:57:48;16.70;99.90
62998;DHT22;55949;52.590;7.330;2023-06-10T02:58:48;16.70;99.90
62998;DHT22;55949;52.590;7.330;2023-06-10T02:59:50;16.70;99.90
62998;DHT22;55949;52.590;7.330;2023-06-10T03:00:51;16.70;99.90
62998;DHT22;55949;52.590;7.330;2023-06-10T03:01:52;16.70;99.90
62998;DHT22;55949;52.590;7.330;2023-06-10T03:02:52;16.60;99.90
62998;DHT22;55949;52.590;7.330;2023-06-10T03:03:57;16.60;99.90
62998;DHT22;55949;52.590;7.330;2023-06-10T03:04:59;16.60;99.90
62998;DHT22;55949;52.590;7.330;2023-06-10T03:05:59;16.60;99.90
62998;DHT22;55949;52.590;7.330;2023-06-10T03:07:00;16.60;99.90
62998;DHT22;55949;52.590;7.330;2023-06-10T03:08:04;16.60;99.90
62998;DHT22;55949;52.590;7.330;2023-06-10T03:09:04;16.60;99.90
62998;DHT22;55949;52.590;7.330;2023-06-10T03:10:05;16.60;99.90
62998;DHT22;55949;52.590;7.330;2023-06-10T03:11:06;16.60;99.90
62998;DHT22;55949;52.590;7.330;2023-06-10T03:12:07;16.60;99.90
62998;DHT22;55949;52.590;7.330;2023-06-10T03:13:07;16.60;99.90
62998;DHT22;55949;52.590;7.330;2023-06-10T03:14:10;16.60;99.90
62998;DHT22;55949;52.590;7.330;2023-06-10T03:15:11;16.70;99.90
62998;DHT22;55949;52.590;7.330;2023-06-10T03:16:11;16.70;99.90
62998;DHT22;55949;52.590;7.330;2023-06-10T03:17:12;16.70;99.90
62998;DHT22;55949;52.590;7.330;2023-06-10T03:18:13;16.70;99.90
62998;DHT22;55949;52.590;7.330;2023-06-10T03:19:13;16.60;99.90
62998;DHT22;55949;52.590;7.330;2023-06-10T03:20:14;16.50;99.90
62998;DHT22;55949;52.590;7.330;2023-06-10T03:21:15;16.50;99.90
62998;DHT22;55949;52.590;7.330;2023-06-10T03:22:16;16.50;99.90
62998;DHT22;55949;52.590;7.330;2023-06-10T03:23:17;16.50;99.90
62998;DHT22;55949;52.590;7.330;2023-06-10T03:24:18;16.50;99.90
62998;DHT22;55949;52.590;7.330;2023-06-10T03:25:19;16.50;99.90
62998;DHT22;55949;52.590;7.330;2023-06-10T03:26:20;16.50;99.90
62998;DHT22;55949;52.590;7.330;2023-06-10T03:27:21;16.50;99.90
62998;DHT22;55949;52.590;7.330;2023-06-10T03:28:22;16.50;99.90
62998;DHT22;55949;52.590;7.330;2023-06-10T03:29:23;16.50;99.90
62998;DHT22;55949;52.590;7.330;2023-06-10T03:30:23;16.50;99.90
62998;DHT22;55949;52.590;7.330;2023-06-10T03:31:24;16.50;99.90
62998;DHT22;55949;52.590;7.330;2023-06-10T03:32:25;16.50;99.90
62998;DHT22;55949;52.590;7.330;2023-06-10T03:33:26;16.40;99.90
62998;DHT22;55949;52.590;7.330;2023-06-10T03:34:27;16.40;99.90
62998;DHT22;55949;52.590;7.330;2023-06-10T03:35:27;16.40;99.90
62998;DHT22;55949;52.590;7.330;2023-06-10T03:36:28;16.40;99.90
62998;DHT22;55949;52.590;7.330;2023-06-10T03:37:29;16.40;99.90
62998;DHT22;55949;52.590;7.330;2023-06-10T03:38:29;16.40;99.90
62998;DHT22;55949;52.590;7.330;2023-06-10T03:39:30;16.40;99.90
62998;DHT22;55949;52.590;7.330;2023-06-10T03:40:31;16.40;99.90
62998;DHT22;55949;52.590;7.330;2023-06-10T03:41:32;16.40;99.90
62998;DHT22;55949;52.590;7.330;2023-06-10T03:42:32;16.30;99.90
62998;DHT22;55949;52.590;7.330;2023-06-10T03:43:33;16.30;99.90
62998;DHT22;55949;52.590;7.330;2023-06-10T03:44:34;16.30;99.90
62998;DHT22;55949;52.590;7.330;2023-06-10T03:45:34;16.20;99.90
62998;DHT22;55949;52.590;7.330;2023-06-10T03:46:35;16.20;99.90
62998;DHT22;55949;52.590;7.330;2023-06-10T03:47:36;16.10;99.90
62998;DHT22;55949;52.590;7.330;2023-06-10T03:48:37;16.10;99.90
62998;DHT22;55949;52.590;7.330;2023-06-10T03:49:39;16.10;99.90
62998;DHT22;55949;52.590;7.330;2023-06-10T03:50:40;16.10;99.90
62998;DHT22;55949;52.590;7.330;2023-06-10T03:51:41;16.10;99.90
62998;DHT22;55949;52.590;7.330;2023-06-10T03:52:42;16.00;99.90
62998;DHT22;55949;52.590;7.330;2023-06-10T03:53:42;16.10;99.90
62998;DHT22;55949;52.590;7.330;2023-06-10T03:54:43;16.00;99.90
62998;DHT22;55949;52.590;7.330;2023-06-10T03:55:43;16.10;99.90
62998;DHT22;55949;52.590;7.330;2023-06-10T03:56:45;16.00;99.90
62998;DHT22;55949;52.590;7.330;2023-06-10T03:57:45;16.00;99.90
62998;DHT22;55949;52.590;7.330;2023-06-10T03:58:46;16.00;99.90
62998;DHT22;55949;52.590;7.330;2023-06-10T03:59:46;16.00;99.90
62998;DHT22;55949;52.590;7.330;2023-06-10T04:00:47;16.00;99.90
62998;DHT22;55949;52.590;7.330;2023-06-10T04:01:49;16.00;99.90
62998;DHT22;55949;52.590;7.330;2023-06-10T04:02:49;16.10;99.90
62998;DHT22;55949;52.590;7.330;2023-06-10T04:03:51;16.10;99.90
62998;DHT22;55949;52.590;7.330;2023-06-10T04:04:54;16.10;99.90
62998;DHT22;55949;52.590;7.330;2023-06-10T04:05:55;16.10;99.90
62998;DHT22;55949;52.590;7.330;2023-06-10T04:06:55;16.10;99.90
62998;DHT22;55949;52.590;7.330;2023-06-10T04:07:56;16.10;99.90
62998;DHT22;55949;52.590;7.330;2023-06-10T04:08:57;16.10;99.90
62998;DHT22;55949;52.590;7.330;2023-06-10T04:09:57;16.10;99.90
62998;DHT22;55949;52.590;7.330;2023-06-10T04:10:58;16.10;99.90
62998;DHT22;55949;52.590;7.330;2023-06-10T04:11:59;16.10;99.90
62998;DHT22;55949;52.590;7.330;2023-06-10T04:13:00;16.10;99.90
62998;DHT22;55949;52.590;7.330;2023-06-10T04:14:00;16.10;99.90
62998;DHT22;55949;52.590;7.330;2023-06-10T04:15:01;16.10;99.90
62998;DHT22;55949;52.590;7.330;2023-06-10T04:16:02;16.10;99.90
62998;DHT22;55949;52.590;7.330;2023-06-10T04:17:03;16.10;99.90
62998;DHT22;55949;52.590;7.330;2023-06-10T04:18:04;16.10;99.90
62998;DHT22;55949;52.590;7.330;2023-06-10T04:19:05;16.10;99.90
62998;DHT22;55949;52.590;7.330;2023-06-10T04:20:06;16.20;99.90
62998;DHT22;55949;52.590;7.330;2023-06-10T04:21:08;16.10;99.90
62998;DHT22;55949;52.590;7.330;2023-06-10T04:22:11;16.20;99.90
62998;DHT22;55949;52.590;7.330;2023-06-10T04:23:12;16.20;99.90
62998;DHT22;55949;52.590;7.330;2023-06-10T04:24:12;16.20;99.90
62998;DHT22;55949;52.590;7.330;2023-06-10T04:25:13;16.20;99.90
62998;DHT22;55949;52.590;7.330;2023-06-10T04:26:13;16.20;99.90
62998;DHT22;55949;52.590;7.330;2023-06-10T04:27:14;16.30;99.90
62998;DHT22;55949;52.590;7.330;2023-06-10T04:28:15;16.30;99.90
62998;DHT22;55949;52.590;7.330;2023-06-10T04:29:15;16.30;99.90
62998;DHT22;55949;52.590;7.330;2023-06-10T04:30:16;16.40;99.90
62998;DHT22;55949;52.590;7.330;2023-06-10T04:31:17;16.40;99.90
62998;DHT22;55949;52.590;7.330;2023-06-10T04:32:17;16.40;99.90
62998;DHT22;55949;52.590;7.330;2023-06-10T04:33:18;16.40;99.90
62998;DHT22;55949;52.590;7.330;2023-06-10T04:34:18;16.40;99.90
62998;DHT22;55949;52.590;7.330;2023-06-10T04:35:19;16.40;99.90
62998;DHT22;55949;52.590;7.330;2023-06-10T04:36:20;16.50;99.90
62998;DHT22;55949;52.590;7.330;2023-06-10T04:37:20;16.50;99.90
62998;DHT22;55949;52.590;7.330;2023-06-10T04:38:21;16.50;99.90
62998;DHT22;55949;52.590;7.330;2023-06-10T04:39:21;16.50;99.90
62998;DHT22;55949;52.590;7.330;2023-06-10T04:40:22;16.50;99.90
62998;DHT22;55949;52.590;7.330;2023-06-10T04:41:23;16.50;99.90
62998;DHT22;55949;52.590;7.330;2023-06-10T04:42:24;16.50;99.90
62998;DHT22;55949;52.590;7.330;2023-06-10T04:43:24;16.50;99.90
62998;DHT22;55949;52.590;7.330;2023-06-10T04:44:25;16.50;99.90
62998;DHT22;55949;52.590;7.330;2023-06-10T04:45:26;16.50;99.90
62998;DHT22;55949;52.590;7.330;2023-06-10T04:46:27;16.50;99.90
62998;DHT22;55949;52.590;7.330;2023-06-10T04:47:27;16.50;99.90
62998;DHT22;55949;52.590;7.330;2023-06-10T04:48:28;16.60;99.90
62998;DHT22;55949;52.590;7.330;2023-06-10T04:49:29;16.60;99.90
62998;DHT22;55949;52.590;7.330;2023-06-10T04:50:30;16.70;99.90
62998;DHT22;55949;52.590;7.330;2023-06-10T04:51:30;16.70;99.90
62998;DHT22;55949;52.590;7.330;2023-06-10T04:52:32;16.70;99.90
62998;DHT22;55949;52.590;7.330;2023-06-10T04:53:33;16.70;99.90
62998;DHT22;55949;52.590;7.330;2023-06-10T04:54:34;16.80;99.90
62998;DHT22;55949;52.590;7.330;2023-06-10T04:55:35;16.80;99.90
62998;DHT22;55949;52.590;7.330;2023-06-10T04:56:36;16.80;99.90
62998;DHT22;55949;52.590;7.330;2023-06-10T04:57:37;16.80;99.90
62998;DHT22;55949;52.590;7.330;2023-06-10T04:58:37;16.80;99.90
62998;DHT22;55949;52.590;7.330;2023-06-10T04:59:38;16.90;99.90
62998;DHT22;55949;52.590;7.330;2023-06-10T05:00:38;16.90;99.90
62998;DHT22;55949;52.590;7.330;2023-06-10T05:01:39;16.90;99.90
62998;DHT22;55949;52.590;7.330;2023-06-10T05:02:40;17.00;99.90
62998;DHT22;55949;52.590;7.330;2023-06-10T05:03:40;17.00;99.90
62998;DHT22;55949;52.590;7.330;2023-06-10T05:04:41;17.00;99.90
62998;DHT22;55949;52.590;7.330;2023-06-10T05:05:42;17.00;99.90
62998;DHT22;55949;52.590;7.330;2023-06-10T05:06:42;17.10;99.90
62998;DHT22;55949;52.590;7.330;2023-06-10T05:07:43;17.10;99.90
62998;DHT22;55949;52.590;7.330;2023-06-10T05:08:43;17.10;99.90
62998;DHT22;55949;52.590;7.330;2023-06-10T05:09:44;17.10;99.90
62998;DHT22;55949;52.590;7.330;2023-06-10T05:10:45;17.10;99.90
62998;DHT22;55949;52.590;7.330;2023-06-10T05:11:46;17.10;99.90
62998;DHT22;55949;52.590;7.330;2023-06-10T05:12:46;17.10;99.90
62998;DHT22;55949;52.590;7.330;2023-06-10T05:13:47;17.20;99.90
62998;DHT22;55949;52.590;7.330;2023-06-10T05:14:47;17.20;99.90
62998;DHT22;55949;52.590;7.330;2023-06-10T05:15:48;17.20;99.90
62998;DHT22;55949;52.590;7.330;2023-06-10T05:16:51;17.20;99.90
62998;DHT22;55949;52.590;7.330;2023-06-10T05:17:52;17.30;99.90
62998;DHT22;55949;52.590;7.330;2023-06-10T05:18:52;17.30;99.90
62998;DHT22;55949;52.590;7.330;2023-06-10T05:19:53;17.20;99.90
62998;DHT22;55949;52.590;7.330;2023-06-10T05:20:53;17.30;99.90
62998;DHT22;55949;52.590;7.330;2023-06-10T05:21:54;17.30;99.90
62998;DHT22;55949;52.590;7.330;2023-06-10T05:22:55;17.30;99.90
62998;DHT22;55949;52.590;7.330;2023-06-10T05:23:56;17.30;99.90
62998;DHT22;55949;52.590;7.330;2023-06-10T05:24:56;17.30;99.90
62998;DHT22;55949;52.590;7.330;2023-06-10T05:25:57;17.40;99.90
62998;DHT22;55949;52.590;7.330;2023-06-10T05:26:58;17.40;99.90
62998;DHT22;55949;52.590;7.330;2023-06-10T05:27:59;17.40;99.90
62998;DHT22;55949;52.590;7.330;2023-06-10T05:29:00;17.40;99.90
62998;DHT22;55949;52.590;7.330;2023-06-10T05:30:01;17.40;99.90
62998;DHT22;55949;52.590;7.330;2023-06-10T05:31:01;17.40;99.90
62998;DHT22;55949;52.590;7.330;2023-06-10T05:32:02;17.40;99.90
62998;DHT22;55949;52.590;7.330;2023-06-10T05:33:04;17.50;99.90
62998;DHT22;55949;52.590;7.330;2023-06-10T05:34:04;17.50;99.90
62998;DHT22;55949;52.590;7.330;2023-06-10T05:35:05;17.50;99.90
62998;DHT22;55949;52.590;7.330;2023-06-10T05:36:06;17.50;99.90
62998;DHT22;55949;52.590;7.330;2023-06-10T05:37:07;17.50;99.90
62998;DHT22;55949;52.590;7.330;2023-06-10T05:38:07;17.50;99.90
62998;DHT22;55949;52.590;7.330;2023-06-10T05:39:08;17.60;99.90
62998;DHT22;55949;52.590;7.330;2023-06-10T05:40:09;17.60;99.90
62998;DHT22;55949;52.590;7.330;2023-06-10T05:41:10;17.60;99.90
62998;DHT22;55949;52.590;7.330;2023-06-10T05:42:11;17.60;99.90
62998;DHT22;55949;52.590;7.330;2023-06-10T05:43:11;17.60;99.90
62998;DHT22;55949;52.590;7.330;2023-06-10T05:44:12;17.60;99.90
62998;DHT22;55949;52.590;7.330;2023-06-10T05:45:12;17.70;99.90
62998;DHT22;55949;52.590;7.330;2023-06-10T05:46:13;17.60;99.90
62998;DHT22;55949;52.590;7.330;2023-06-10T05:47:13;17.60;99.90
62998;DHT22;55949;52.590;7.330;2023-06-10T05:48:14;17.70;99.90
62998;DHT22;55949;52.590;7.330;2023-06-10T05:49:15;17.60;99.90
62998;DHT22;55949;52.590;7.330;2023-06-10T05:50:15;17.60;99.90
62998;DHT22;55949;52.590;7.330;2023-06-10T05:51:16;17.60;99.90
62998;DHT22;55949;52.590;7.330;2023-06-10T05:52:17;17.70;99.90
62998;DHT22;55949;52.590;7.330;2023-06-10T05:53:18;17.70;99.90
62998;DHT22;55949;52.590;7.330;2023-06-10T05:54:18;17.70;99.90
62998;DHT22;55949;52.590;7.330;2023-06-10T05:55:19;17.70;99.90
62998;DHT22;55949;52.590;7.330;2023-06-10T05:56:20;17.70;99.90
62998;DHT22;55949;52.590;7.330;2023-06-10T05:57:22;17.80;99.90
62998;DHT22;55949;52.590;7.330;2023-06-10T05:58:23;17.90;99.90
62998;DHT22;55949;52.590;7.330;2023-06-10T05:59:24;17.90;99.90
62998;DHT22;55949;52.590;7.330;2023-06-10T06:00:24;17.90;99.90
62998;DHT22;55949;52.590;7.330;2023-06-10T06:01:25;17.90;99.90
62998;DHT22;55949;52.590;7.330;2023-06-10T06:02:26;18.00;99.90
62998;DHT22;55949;52.590;7.330;2023-06-10T06:03:26;17.90;99.90
62998;DHT22;55949;52.590;7.330;2023-06-10T06:04:28;17.90;99.90
62998;DHT22;55949;52.590;7.330;2023-06-10T06:05:29;17.90;99.90
62998;DHT22;55949;52.590;7.330;2023-06-10T06:06:35;18.00;99.90
62998;DHT22;55949;52.590;7.330;2023-06-10T06:07:35;18.00;99.90
62998;DHT22;55949;52.590;7.330;2023-06-10T06:08:36;18.00;99.90
62998;DHT22;55949;52.590;7.330;2023-06-10T06:09:36;18.10;99.90
62998;DHT22;55949;52.590;7.330;2023-06-10T06:10:37;18.10;99.90
62998;DHT22;55949;52.590;7.330;2023-06-10T06:11:38;18.10;99.90
62998;DHT22;55949;52.590;7.330;2023-06-10T06:12:38;18.20;99.90
62998;DHT22;55949;52.590;7.330;2023-06-10T06:13:39;18.20;99.90
62998;DHT22;55949;52.590;7.330;2023-06-10T06:14:43;18.30;99.90
62998;DHT22;55949;52.590;7.330;2023-06-10T06:15:45;18.30;99.90
62998;DHT22;55949;52.590;7.330;2023-06-10T06:16:46;18.40;99.90
62998;DHT22;55949;52.590;7.330;2023-06-10T06:17:47;18.40;99.90
62998;DHT22;55949;52.590;7.330;2023-06-10T06:18:47;18.40;99.90
62998;DHT22;55949;52.590;7.330;2023-06-10T06:19:48;18.40;99.90
62998;DHT22;55949;52.590;7.330;2023-06-10T06:20:49;18.40;99.90
62998;DHT22;55949;52.590;7.330;2023-06-10T06:21:50;18.40;99.90
62998;DHT22;55949;52.590;7.330;2023-06-10T06:22:50;18.40;99.90
62998;DHT22;55949;52.590;7.330;2023-06-10T06:23:51;18.50;99.90
62998;DHT22;55949;52.590;7.330;2023-06-10T06:24:52;18.50;99.90
62998;DHT22;55949;52.590;7.330;2023-06-10T06:25:52;18.50;99.90
62998;DHT22;55949;52.590;7.330;2023-06-10T06:26:53;18.50;99.90
62998;DHT22;55949;52.590;7.330;2023-06-10T06:27:53;18.50;99.90